createdAt,value
2023-02-04T00:02:05.141Z,51.40
2023-02-04T00:07:09.174Z,51.50
2023-02-04T00:12:14.760Z,51.10
2023-02-04T00:17:18.801Z,50.90
2023-02-04T00:22:23.035Z,51.00
2023-02-04T00:27:27.057Z,50.50
2023-02-04T00:32:31.800Z,50.20
2023-02-04T00:37:36.122Z,50.20
2023-02-04T00:42:42.009Z,50.50
2023-02-04T00:47:46.256Z,50.50
2023-02-04T00:52:50.584Z,50.50
2023-02-04T00:57:54.614Z,50.20
2023-02-04T01:02:59.049Z,49.80
2023-02-04T01:08:03.302Z,49.20
2023-02-04T01:13:08.775Z,49.60
2023-02-04T01:18:13.510Z,49.60
2023-02-04T01:23:18.260Z,49.90
2023-02-04T01:28:22.615Z,49.60
2023-02-04T01:33:26.859Z,49.60
2023-02-04T01:38:30.979Z,49.70
2023-02-04T01:43:35.637Z,49.70
2023-02-04T01:48:40.184Z,49.40
2023-02-04T01:53:44.407Z,49.20
2023-02-04T01:58:49.252Z,49.00
2023-02-04T02:03:56.113Z,48.90
2023-02-04T02:09:00.411Z,49.30
2023-02-04T02:14:05.968Z,49.30
2023-02-04T02:19:15.621Z,49.20
2023-02-04T02:24:31.319Z,49.00
2023-02-04T02:29:36.999Z,49.20
2023-02-04T02:34:42.349Z,49.30
2023-02-04T02:39:47.007Z,49.30
2023-02-04T02:44:52.185Z,48.60
2023-02-04T02:49:56.137Z,49.20
2023-02-04T02:55:00.109Z,49.20
2023-02-04T03:00:16.854Z,48.90
2023-02-04T03:05:21.364Z,48.30
2023-02-04T03:10:25.504Z,48.90
2023-02-04T03:15:30.438Z,48.60
2023-02-04T03:20:35.212Z,48.90
2023-02-04T03:25:40.179Z,48.50
2023-02-04T03:30:44.400Z,48.40
2023-02-04T03:35:48.430Z,48.40
2023-02-04T03:40:52.577Z,48.40
2023-02-04T03:45:56.618Z,48.20
2023-02-04T03:51:00.670Z,47.90
2023-02-04T03:56:04.918Z,47.70
2023-02-04T04:01:08.939Z,48.70
2023-02-04T04:06:13.040Z,48.80
2023-02-04T04:11:16.969Z,48.50
2023-02-04T04:16:21.436Z,48.50
2023-02-04T04:21:25.743Z,47.90
2023-02-04T04:26:29.897Z,48.10
2023-02-04T04:31:34.207Z,48.00
2023-02-04T04:36:39.484Z,48.00
2023-02-04T04:41:43.519Z,48.30
2023-02-04T04:46:47.807Z,48.00
2023-02-04T04:51:51.886Z,48.20
2023-02-04T04:56:55.920Z,48.10
2023-02-04T05:02:00.170Z,47.90
2023-02-04T05:07:04.804Z,47.90
2023-02-04T05:12:08.957Z,48.10
2023-02-04T05:17:12.980Z,48.00
2023-02-04T05:22:17.322Z,48.50
2023-02-04T05:27:21.371Z,49.50
2023-02-04T05:32:25.623Z,47.90
2023-02-04T05:37:30.127Z,48.20
2023-02-04T05:42:34.061Z,48.30
2023-02-04T05:47:38.114Z,47.90
2023-02-04T05:52:42.324Z,47.60
2023-02-04T05:57:46.254Z,47.60
2023-02-04T06:02:50.288Z,47.60
2023-02-04T06:07:54.612Z,47.70
2023-02-04T06:12:58.675Z,47.70
2023-02-04T06:18:02.797Z,47.60
2023-02-04T06:23:06.822Z,47.70
2023-02-04T06:28:10.900Z,47.50
2023-02-04T06:33:14.907Z,47.60
2023-02-04T06:38:19.946Z,47.30
2023-02-04T06:43:25.881Z,47.70
2023-02-04T06:48:31.195Z,47.60
2023-02-04T06:53:35.362Z,47.90
2023-02-04T06:58:39.368Z,48.30
2023-02-04T07:03:45.096Z,48.30
2023-02-04T07:08:49.995Z,47.70
2023-02-04T07:13:54.020Z,46.90
2023-02-04T07:18:58.347Z,47.40
2023-02-04T07:24:02.496Z,47.00
2023-02-04T07:29:08.520Z,47.80
2023-02-04T07:34:18.968Z,47.60
2023-02-04T07:39:22.978Z,48.00
2023-02-04T07:44:27.300Z,47.60
2023-02-04T07:49:31.335Z,47.60
2023-02-04T07:54:35.584Z,48.00
2023-02-04T07:59:39.611Z,47.60
2023-02-04T08:04:44.149Z,47.50
2023-02-04T08:09:48.180Z,47.30
2023-02-04T08:14:52.108Z,47.20
2023-02-04T08:19:56.952Z,47.30
2023-02-04T08:25:01.418Z,47.10
2023-02-04T08:30:06.587Z,47.00
2023-02-04T08:35:10.710Z,46.90
2023-02-04T08:40:15.496Z,46.80
2023-02-04T08:45:19.787Z,46.60
2023-02-04T08:50:23.932Z,46.60
2023-02-04T08:55:28.778Z,47.10
2023-02-04T09:00:34.029Z,46.60
2023-02-04T09:05:39.011Z,46.90
2023-02-04T09:10:43.677Z,47.30
2023-02-04T09:15:47.571Z,47.20
2023-02-04T09:20:53.981Z,47.00
2023-02-04T09:25:59.742Z,47.60
2023-02-04T09:31:06.801Z,47.70
2023-02-04T09:36:10.787Z,48.00
2023-02-04T09:41:15.336Z,48.00
2023-02-04T09:46:23.054Z,48.40
2023-02-04T09:51:29.886Z,47.90
2023-02-04T09:56:34.276Z,48.00
2023-02-04T10:01:41.789Z,48.10
2023-02-04T10:06:46.751Z,47.90
2023-02-04T10:11:51.989Z,47.60
2023-02-04T10:16:59.483Z,48.00
2023-02-04T10:22:04.589Z,48.10
2023-02-04T10:27:13.199Z,48.10
2023-02-04T10:32:29.531Z,48.50
2023-02-04T10:37:33.654Z,48.50
2023-02-04T10:42:37.878Z,48.70
2023-02-04T10:47:52.088Z,49.00
2023-02-04T10:53:17.776Z,49.20
2023-02-04T10:58:30.446Z,48.50
2023-02-04T11:03:34.652Z,48.50
2023-02-04T11:08:39.985Z,48.40
2023-02-04T11:13:58.475Z,48.30
2023-02-04T11:19:12.121Z,48.40
2023-02-04T11:24:16.567Z,48.00
2023-02-04T11:29:36.228Z,48.00
2023-02-04T11:34:51.439Z,48.00
2023-02-04T11:40:00.568Z,48.10
2023-02-04T11:45:18.520Z,47.80
2023-02-04T11:50:44.800Z,47.90
2023-02-04T11:55:55.054Z,48.40
2023-02-04T12:00:59.693Z,47.20
2023-02-04T12:06:04.451Z,47.20
2023-02-04T12:11:26.285Z,47.50
2023-02-04T12:16:40.650Z,47.10
2023-02-04T12:21:45.571Z,46.90
2023-02-04T12:26:49.845Z,46.70
2023-02-04T12:31:54.198Z,46.90
2023-02-04T12:36:58.630Z,46.90
2023-02-04T12:42:04.901Z,46.50
2023-02-04T12:47:09.243Z,46.50
2023-02-04T12:52:13.393Z,46.70
2023-02-04T12:57:20.168Z,47.10
2023-02-04T13:02:24.307Z,47.30
2023-02-04T13:07:28.435Z,46.50
2023-02-04T13:12:32.456Z,44.80
2023-02-04T13:17:37.029Z,44.00
2023-02-04T13:22:41.361Z,43.50
2023-02-04T13:27:45.524Z,43.30
2023-02-04T13:32:49.827Z,43.10
2023-02-04T13:37:56.568Z,42.90
2023-02-04T13:43:00.781Z,43.50
2023-02-04T13:48:05.412Z,43.10
2023-02-04T13:53:09.565Z,42.70
2023-02-04T13:58:14.473Z,42.30
2023-02-04T14:03:18.745Z,42.30
2023-02-04T14:08:23.880Z,41.90
2023-02-04T14:13:28.338Z,41.70
2023-02-04T14:18:34.035Z,41.50
2023-02-04T14:23:39.584Z,41.30
2023-02-04T14:28:44.107Z,41.20
2023-02-04T14:33:50.126Z,41.10
2023-02-04T14:38:54.936Z,41.40
2023-02-04T14:43:59.788Z,41.00
2023-02-04T14:49:04.234Z,40.80
2023-02-04T14:54:08.591Z,40.70
2023-02-04T14:59:14.091Z,40.50
2023-02-04T15:04:18.909Z,40.60
2023-02-04T15:09:25.157Z,40.60
2023-02-04T15:14:29.216Z,40.50
2023-02-04T15:19:33.751Z,40.60
2023-02-04T15:24:39.580Z,40.40
2023-02-04T15:29:43.975Z,40.40
2023-02-04T15:34:49.437Z,39.90
2023-02-04T15:39:55.336Z,40.40
2023-02-04T15:45:02.158Z,40.10
2023-02-04T15:50:09.344Z,39.60
2023-02-04T15:55:15.169Z,39.80
2023-02-04T16:00:20.568Z,39.80
2023-02-04T16:05:25.188Z,39.80
2023-02-04T16:10:29.626Z,39.70
2023-02-04T16:15:34.321Z,40.00
2023-02-04T16:20:39.672Z,39.70
2023-02-04T16:25:44.083Z,39.10
2023-02-04T16:30:49.045Z,39.50
2023-02-04T16:36:01.404Z,39.40
2023-02-04T16:41:07.812Z,40.70
2023-02-04T16:46:16.450Z,39.80
2023-02-04T16:51:21.410Z,39.80
2023-02-04T16:56:27.481Z,41.60
2023-02-04T17:01:31.955Z,43.50
2023-02-04T17:06:36.332Z,44.00
2023-02-04T17:11:40.842Z,46.20
2023-02-04T17:16:46.103Z,48.40
2023-02-04T17:21:50.849Z,49.60
2023-02-04T17:26:55.601Z,49.50
2023-02-04T17:32:00.847Z,50.70
2023-02-04T17:37:04.996Z,50.80
2023-02-04T17:42:09.892Z,52.40
2023-02-04T17:47:15.016Z,53.20
2023-02-04T17:52:20.196Z,51.80
2023-02-04T17:57:24.929Z,51.60
2023-02-04T18:02:33.887Z,50.80
2023-02-04T18:07:41.593Z,50.80
2023-02-04T18:12:46.536Z,50.30
2023-02-04T18:17:51.565Z,49.80
2023-02-04T18:23:03.692Z,49.50
2023-02-04T18:28:22.471Z,49.40
2023-02-04T18:33:27.747Z,48.60
2023-02-04T18:38:39.871Z,48.90
2023-02-04T18:43:48.782Z,49.00
2023-02-04T18:48:57.902Z,48.80
2023-02-04T18:54:25.525Z,48.50
2023-02-04T18:59:30.862Z,49.00
2023-02-04T19:04:37.560Z,49.40
2023-02-04T19:09:42.781Z,49.70
2023-02-04T19:14:47.580Z,49.30
2023-02-04T19:20:09.865Z,49.10
2023-02-04T19:25:25.003Z,49.00
2023-02-04T19:30:29.629Z,49.50
2023-02-04T19:35:46.687Z,48.30
2023-02-04T19:40:57.148Z,48.70
2023-02-04T19:46:17.431Z,47.80
2023-02-04T19:51:29.678Z,47.80
2023-02-04T19:56:37.078Z,47.80
2023-02-04T20:01:43.526Z,47.40
2023-02-04T20:06:51.312Z,49.20
2023-02-04T20:12:07.013Z,48.70
2023-02-04T20:17:21.627Z,50.00
2023-02-04T20:22:44.029Z,50.70
2023-02-04T20:28:01.618Z,50.80
2023-02-04T20:33:38.052Z,49.90
2023-02-04T20:38:42.376Z,52.70
2023-02-04T20:43:49.869Z,51.50
2023-02-04T20:48:55.680Z,51.00
2023-02-04T20:54:07.744Z,50.40
2023-02-04T20:59:14.901Z,50.00
2023-02-04T21:04:39.181Z,49.00
2023-02-04T21:09:44.226Z,48.10
2023-02-04T21:14:49.431Z,48.60
2023-02-04T21:19:54.644Z,48.40
2023-02-04T21:24:59.805Z,48.40
2023-02-04T21:30:05.663Z,48.50
2023-02-04T21:35:11.965Z,48.10
2023-02-04T21:40:22.408Z,48.10
2023-02-04T21:45:28.344Z,48.00
2023-02-04T21:50:36.036Z,48.30
2023-02-04T21:55:44.030Z,47.70
2023-02-04T22:00:50.387Z,48.00
2023-02-04T22:05:58.105Z,47.70
2023-02-04T22:11:07.745Z,47.60
2023-02-04T22:16:16.990Z,47.30
2023-02-04T22:21:24.068Z,47.00
2023-02-04T22:26:28.733Z,47.00
2023-02-04T22:31:38.426Z,47.00
2023-02-04T22:36:45.154Z,46.90
2023-02-04T22:41:52.175Z,46.90
2023-02-04T22:46:57.172Z,46.80
2023-02-04T22:52:02.297Z,46.90
2023-02-04T22:57:07.872Z,47.00
2023-02-04T23:02:13.075Z,46.80
2023-02-04T23:07:17.866Z,47.90
2023-02-04T23:12:23.012Z,48.20
2023-02-04T23:17:28.384Z,48.70
2023-02-04T23:22:33.335Z,48.50
2023-02-04T23:27:38.265Z,48.80
2023-02-04T23:32:42.926Z,48.70
2023-02-04T23:37:47.057Z,49.10
2023-02-04T23:42:52.118Z,49.20
2023-02-04T23:47:56.253Z,49.30
2023-02-04T23:53:00.516Z,49.60
2023-02-04T23:58:06.381Z,49.70
